Stations météo

réclame
Mon MeteoGroup
Chateau Chinon, France (7270): Température de l'air & dewpoint: 13.07.2018 15:00:00 - 19.07.2018 15:00:00 (CEST)Chateau Chinon, France (7270): Vitesse du vent & gusts: 13.07.2018 15:00:00 - 19.07.2018 15:00:00 (CEST)Chateau Chinon, France (7270): Direction du vent: 13.07.2018 15:00:00 - 19.07.2018 15:00:00 (CEST)Chateau Chinon, France (7270): Quantités de précipitations: 13.07.2018 15:00:00 - 19.07.2018 15:00:00 (CEST)
Date & Time tt [°C] td [°C] ff [km/h] ff [knt] fx [km/h] fx [knt] dd rr [mm]
19.07.2018 15:00:00 28,5 10,7 4 2 15 8 NNE 0,0
19.07.2018 14:00:00 27,7 10,4 4 2 22 12 NE -
19.07.2018 13:00:00 27,2 12,8 4 2 15 8 ENE 0,0
19.07.2018 12:00:00 26,5 12,5 4 2 15 8 ENE 0,0
19.07.2018 11:00:00 25,0 14,2 4 2 11 6 NNW 0,0
19.07.2018 10:00:00 23,1 13,6 4 2 8 4 NW 0,0
19.07.2018 09:00:00 22,6 13,6 0 0 11 6 N 0,0
19.07.2018 08:00:00 20,3 12,3 5 3 9 5 SE -
19.07.2018 07:00:00 17,4 10,7 8 4 13 7 SE 0,0
19.07.2018 06:00:00 17,0 10,6 4 2 9 5 ESE 0,0
19.07.2018 05:00:00 16,8 10,9 2 1 9 5 E 0,0
19.07.2018 04:00:00 17,0 10,6 4 2 18 10 E 0,0
19.07.2018 03:00:00 16,3 10,4 4 2 18 10 E 0,0
19.07.2018 02:00:00 17,0 10,4 4 2 13 7 E -
19.07.2018 01:00:00 17,9 10,3 4 2 13 7 E 0,0
19.07.2018 00:00:00 18,6 10,4 4 2 13 7 ESE 0,0
18.07.2018 23:00:00 19,5 9,9 4 2 15 8 NE 0,0
18.07.2018 22:00:00 19,4 9,8 0 0 15 8 N 0,0
18.07.2018 21:00:00 21,7 9,9 2 1 13 7 WNW 0,0
18.07.2018 20:00:00 24,5 11,1 4 2 13 7 NW -
18.07.2018 19:00:00 26,3 10,4 4 2 15 8 NNE 0,0
18.07.2018 18:00:00 26,4 9,3 4 2 18 10 NNE 0,0
18.07.2018 17:00:00 26,0 9,3 5 3 13 7 NE 0,0
18.07.2018 16:00:00 25,3 9,2 4 2 22 12 NNE 0,0
18.07.2018 15:00:00 24,9 9,6 4 2 16 9 NNW 0,0
18.07.2018 14:00:00 25,3 11,1 5 3 13 7 WSW -
18.07.2018 13:00:00 23,5 9,8 4 2 15 8 NW 0,0
18.07.2018 12:00:00 23,1 9,8 4 2 11 6 NE 0,0
18.07.2018 11:00:00 22,8 10,6 4 2 11 6 W 0,0
18.07.2018 10:00:00 21,4 13,3 4 2 13 7 WNW 0,0
18.07.2018 09:00:00 22,2 12,7 2 1 9 5 ENE 0,0
18.07.2018 08:00:00 20,0 12,0 2 1 9 5 E -
18.07.2018 07:00:00 15,7 10,7 4 2 11 6 E 0,0
18.07.2018 06:00:00 15,0 10,2 4 2 9 5 ESE 0,0
18.07.2018 05:00:00 14,7 10,1 2 1 8 4 NNE 0,0
18.07.2018 04:00:00 14,3 9,9 0 0 8 4 N 0,0
18.07.2018 03:00:00 14,5 9,7 0 0 8 4 N 0,0
18.07.2018 02:00:00 14,5 9,5 0 0 8 4 N -
18.07.2018 01:00:00 15,4 9,3 2 1 8 4 W 0,0
18.07.2018 00:00:00 15,0 9,6 0 0 8 4 N 0,0
17.07.2018 23:00:00 14,7 9,7 0 0 4 2 N 0,0
17.07.2018 22:00:00 15,4 9,5 0 0 9 5 N 0,0
17.07.2018 21:00:00 18,3 9,6 4 2 13 7 NE 0,0
17.07.2018 20:00:00 21,3 11,0 4 2 21 11 NNE -
17.07.2018 19:00:00 23,5 11,2 4 2 16 9 NNW 0,0
17.07.2018 18:00:00 22,9 13,7 4 2 21 11 NNE 0,0
17.07.2018 17:00:00 23,3 12,9 4 2 18 10 N 0,0
17.07.2018 16:00:00 24,2 13,4 4 2 18 10 N 0,0
17.07.2018 15:00:00 22,9 13,4 4 2 16 9 NNE 0,0
17.07.2018 14:00:00 21,0 14,2 4 2 22 12 NW -
17.07.2018 13:00:00 21,4 14,3 4 2 21 11 WNW 0,0
17.07.2018 12:00:00 19,9 14,0 4 2 18 10 WNW 0,0
17.07.2018 11:00:00 18,9 14,6 4 2 18 10 NW 0,0
17.07.2018 10:00:00 16,0 13,8 2 1 16 9 WNW 0,0
17.07.2018 09:00:00 15,7 13,7 4 2 18 10 SW 0,0
17.07.2018 08:00:00 16,8 13,5 4 2 21 11 WNW -
17.07.2018 07:00:00 14,5 13,2 4 2 15 8 WNW 0,0
17.07.2018 06:00:00 14,2 12,6 2 1 13 7 W 0,0
17.07.2018 05:00:00 15,0 12,9 4 2 15 8 WSW 0,0
17.07.2018 04:00:00 16,2 12,7 4 2 11 6 WSW 0,0
17.07.2018 03:00:00 16,4 13,5 2 1 13 7 W 0,0
17.07.2018 02:00:00 16,5 13,6 2 1 11 6 W -
17.07.2018 01:00:00 17,3 13,8 2 1 8 4 W 0,0
17.07.2018 00:00:00 17,9 13,4 5 3 15 8 SW 0,0
16.07.2018 23:00:00 18,5 10,8 4 2 9 5 SSW 0,0
16.07.2018 22:00:00 19,4 11,7 2 1 8 4 WNW 0,0
16.07.2018 21:00:00 20,8 11,4 4 2 11 6 E 0,0
16.07.2018 20:00:00 22,0 11,7 4 2 16 9 NNE -
16.07.2018 19:00:00 23,6 11,9 8 4 31 17 NW 0,0
16.07.2018 18:00:00 24,9 12,5 4 2 22 12 N 0,0
16.07.2018 17:00:00 27,2 12,8 4 2 16 9 S 0,0
16.07.2018 16:00:00 28,3 9,1 4 2 21 11 WNW 0,0
16.07.2018 15:00:00 28,2 9,9 4 2 18 10 NW 0,0
16.07.2018 14:00:00 27,0 7,9 4 2 22 12 N -
16.07.2018 13:00:00 27,0 10,7 4 2 15 8 NNE 0,0
16.07.2018 12:00:00 27,0 11,5 4 2 15 8 N 0,0
16.07.2018 11:00:00 25,9 10,9 2 1 13 7 WNW 0,0
16.07.2018 10:00:00 24,6 10,8 5 3 13 7 NE 0,0
16.07.2018 09:00:00 24,3 11,3 4 2 9 5 ENE 0,0
16.07.2018 08:00:00 21,1 10,9 2 1 8 4 E -
16.07.2018 07:00:00 17,5 9,1 4 2 8 4 SE 0,0
16.07.2018 06:00:00 17,4 8,3 4 2 9 5 SE 0,0
16.07.2018 05:00:00 16,8 8,0 4 2 13 7 SE 0,0
16.07.2018 04:00:00 17,3 7,9 4 2 15 8 ESE 0,0
16.07.2018 03:00:00 17,7 8,5 4 2 11 6 SE 0,0
16.07.2018 02:00:00 17,8 8,9 5 3 21 11 SE -
16.07.2018 01:00:00 17,7 9,8 5 3 13 7 SSE 0,0
16.07.2018 00:00:00 18,2 11,7 5 3 15 8 SSE 0,0
15.07.2018 23:00:00 16,9 13,2 5 3 22 12 ESE 0,0
15.07.2018 22:00:00 18,3 11,8 5 3 26 14 E 0,0
15.07.2018 21:00:00 20,2 11,1 4 2 16 9 E 0,0
15.07.2018 20:00:00 23,9 13,1 0 0 16 9 N -
15.07.2018 19:00:00 23,6 10,3 5 3 22 12 ESE 0,0
15.07.2018 18:00:00 22,4 11,8 5 3 37 20 E 0,0
15.07.2018 17:00:00 22,0 14,4 0 0 22 12 N 0,0
15.07.2018 16:00:00 24,0 12,6 5 3 22 12 N 0,0
15.07.2018 15:00:00 28,2 12,9 4 2 18 10 NW 0,0
15.07.2018 14:00:00 28,4 10,6 4 2 15 8 W -
15.07.2018 13:00:00 27,5 10,7 4 2 15 8 W 0,0
15.07.2018 12:00:00 26,9 15,0 4 2 11 6 NW 0,0
15.07.2018 11:00:00 24,8 14,9 4 2 9 5 W 0,0
15.07.2018 10:00:00 23,9 13,4 2 1 8 4 SW 0,0
15.07.2018 09:00:00 22,8 12,4 4 2 9 5 SSE 0,0
15.07.2018 08:00:00 21,2 10,7 5 3 9 5 SSE -
15.07.2018 07:00:00 19,2 9,1 4 2 9 5 SSW 0,0
15.07.2018 06:00:00 18,6 8,5 4 2 9 5 SE 0,0
15.07.2018 05:00:00 19,0 8,3 5 3 9 5 SE 0,0
15.07.2018 04:00:00 19,0 9,2 4 2 9 5 SE 0,0
15.07.2018 03:00:00 19,4 10,1 4 2 9 5 SE 0,0
15.07.2018 02:00:00 20,3 10,1 4 2 11 6 ESE -
15.07.2018 01:00:00 19,9 10,3 2 1 9 5 NE 0,0
15.07.2018 00:00:00 20,5 10,6 5 3 9 5 SSE 0,0
14.07.2018 23:00:00 20,5 11,4 5 3 8 4 SE 0,0
14.07.2018 22:00:00 21,4 11,7 4 2 5 3 SE 0,0
14.07.2018 21:00:00 21,7 11,7 0 0 4 2 N 0,0
14.07.2018 20:00:00 25,7 14,5 0 0 13 7 N -
14.07.2018 19:00:00 26,0 11,4 5 3 15 8 SSW 0,0
14.07.2018 18:00:00 25,8 10,0 2 1 8 4 SW 0,0
14.07.2018 17:00:00 26,3 12,7 4 2 11 6 WNW 0,0
14.07.2018 16:00:00 28,0 9,8 4 2 13 7 NW 0,0
14.07.2018 15:00:00 27,0 9,8 4 2 16 9 N 0,0
14.07.2018 14:00:00 26,3 10,8 4 2 13 7 SSW -
14.07.2018 13:00:00 26,5 9,4 4 2 13 7 NNW 0,0
14.07.2018 12:00:00 25,4 11,2 2 1 9 5 NW 0,0
14.07.2018 11:00:00 24,9 11,5 2 1 8 4 NNW 0,0
14.07.2018 10:00:00 25,8 11,5 0 0 8 4 N 0,0
14.07.2018 09:00:00 24,1 10,7 4 2 13 7 SE 0,0
14.07.2018 08:00:00 20,7 10,5 5 3 13 7 SE -
14.07.2018 07:00:00 18,7 9,7 5 3 13 7 ESE 0,0
14.07.2018 06:00:00 18,1 8,9 5 3 9 5 SE 0,0
14.07.2018 05:00:00 18,4 8,6 2 1 11 6 E 0,0
14.07.2018 04:00:00 18,3 8,3 4 2 9 5 ESE 0,0
14.07.2018 03:00:00 18,4 7,8 2 1 8 4 E 0,0
14.07.2018 02:00:00 18,5 8,2 4 2 9 5 ESE -
14.07.2018 01:00:00 19,4 8,1 4 2 9 5 ESE 0,0
14.07.2018 00:00:00 19,9 8,6 4 2 11 6 E 0,0
13.07.2018 23:00:00 20,2 10,0 4 2 9 5 E 0,0
13.07.2018 22:00:00 20,4 12,4 4 2 8 4 ESE 0,0
13.07.2018 21:00:00 21,6 8,5 4 2 8 4 NNE 0,0
13.07.2018 20:00:00 24,9 12,8 0 0 9 5 N -
13.07.2018 19:00:00 26,1 8,6 4 2 13 7 NNE 0,0
13.07.2018 18:00:00 26,8 11,7 4 2 13 7 NW 0,0
13.07.2018 17:00:00 26,1 11,8 2 1 13 7 N 0,0
13.07.2018 16:00:00 27,4 9,2 5 3 16 9 WSW 0,0
13.07.2018 15:00:00 25,3 10,7 4 2 13 7 SE 0,0

tt = Température de l'air
td = dewpoint
ff = Vitesse du vent
fx = gusts
dd = Direction du vent
rr = Quantités de précipitations

stations d'obs. à proximité